createdAt,value
2019-05-03T00:00:02.803Z,13.60
2019-05-03T00:02:52.288Z,13.03
2019-05-03T00:05:24.522Z,15.87
2019-05-03T00:07:56.160Z,14.27
2019-05-03T00:10:26.824Z,16.17
2019-05-03T00:12:57.489Z,13.63
2019-05-03T00:15:45.756Z,15.73
2019-05-03T00:18:16.972Z,12.00
2019-05-03T00:20:47.567Z,14.77
2019-05-03T00:23:18.493Z,15.77
2019-05-03T00:25:49.070Z,15.27
2019-05-03T00:28:21.576Z,14.97
2019-05-03T00:30:53.030Z,15.53
2019-05-03T00:33:24.260Z,14.23
2019-05-03T00:36:02.570Z,15.53
2019-05-03T00:38:33.310Z,19.07
2019-05-03T00:41:04.045Z,16.00
2019-05-03T00:43:34.679Z,12.20
2019-05-03T00:46:05.482Z,11.80
2019-05-03T00:48:36.001Z,13.50
2019-05-03T00:51:06.692Z,16.23
2019-05-03T00:53:37.377Z,14.73
2019-05-03T00:56:08.066Z,13.40
2019-05-03T00:58:53.078Z,16.03
2019-05-03T01:01:23.958Z,14.63
2019-05-03T01:03:54.501Z,15.40
2019-05-03T01:06:25.283Z,12.13
2019-05-03T01:08:55.897Z,13.83
2019-05-03T01:11:28.035Z,13.87
2019-05-03T01:14:02.257Z,16.20
2019-05-03T01:16:32.721Z,19.87
2019-05-03T01:19:03.318Z,17.63
2019-05-03T01:21:33.963Z,16.53
2019-05-03T01:24:04.615Z,17.00
2019-05-03T01:26:35.189Z,16.20
2019-05-03T01:29:07.250Z,15.20
2019-05-03T01:31:37.963Z,17.73
2019-05-03T01:34:08.475Z,20.13
2019-05-03T01:36:40.076Z,13.53
2019-05-03T01:39:12.627Z,13.87
2019-05-03T01:41:42.968Z,16.37
2019-05-03T01:44:14.006Z,15.83
2019-05-03T01:46:44.988Z,19.77
2019-05-03T01:49:19.912Z,19.43
2019-05-03T01:51:52.644Z,19.23
2019-05-03T01:54:23.447Z,20.20
2019-05-03T01:56:58.880Z,19.70
2019-05-03T01:59:26.570Z,22.67
2019-05-03T02:01:58.830Z,25.03
2019-05-03T02:04:32.244Z,31.23
2019-05-03T02:07:03.128Z,22.63
2019-05-03T02:09:33.813Z,26.47
2019-05-03T02:12:05.084Z,26.47
2019-05-03T02:14:35.646Z,24.37
2019-05-03T02:17:06.190Z,29.67
2019-05-03T02:19:36.818Z,24.57
2019-05-03T02:22:07.776Z,22.83
2019-05-03T02:24:38.327Z,24.93
2019-05-03T02:27:08.938Z,28.37
2019-05-03T02:29:39.571Z,22.37
2019-05-03T02:32:10.157Z,23.20
2019-05-03T02:34:43.585Z,23.87
2019-05-03T02:37:14.006Z,20.13
2019-05-03T02:39:45.026Z,19.27
2019-05-03T02:42:16.266Z,20.23
2019-05-03T02:44:47.021Z,20.47
2019-05-03T02:47:31.590Z,21.33
2019-05-03T02:50:05.820Z,25.90
2019-05-03T02:52:37.565Z,19.87
2019-05-03T02:55:10.394Z,19.10
2019-05-03T02:57:41.046Z,21.20
2019-05-03T03:00:16.344Z,17.57
2019-05-03T03:02:46.526Z,20.97
2019-05-03T03:05:17.086Z,21.77
2019-05-03T03:07:48.979Z,24.53
2019-05-03T03:10:19.487Z,20.70
2019-05-03T03:12:55.214Z,23.03
2019-05-03T03:15:26.332Z,21.60
2019-05-03T03:17:58.025Z,19.50
2019-05-03T03:20:30.258Z,21.60
2019-05-03T03:23:06.010Z,23.37
2019-05-03T03:25:39.314Z,22.97
2019-05-03T03:28:12.905Z,20.33
2019-05-03T03:30:57.164Z,22.23
2019-05-03T03:33:28.143Z,18.97
2019-05-03T03:36:01.193Z,20.93
2019-05-03T03:38:28.948Z,18.83
2019-05-03T03:41:01.403Z,19.17
2019-05-03T03:43:35.323Z,17.00
2019-05-03T03:46:06.743Z,17.67
2019-05-03T03:48:40.229Z,20.17
2019-05-03T03:51:12.295Z,17.63
2019-05-03T03:53:46.474Z,16.30
2019-05-03T03:56:20.145Z,18.87
2019-05-03T03:58:52.194Z,19.50
2019-05-03T04:01:22.777Z,20.63
2019-05-03T04:03:56.051Z,19.23
2019-05-03T04:06:27.927Z,19.20
2019-05-03T04:08:58.580Z,20.83
2019-05-03T04:11:29.260Z,19.73
2019-05-03T04:14:00.053Z,19.23
2019-05-03T04:16:38.135Z,20.47
2019-05-03T04:19:11.226Z,20.23
2019-05-03T04:21:41.935Z,25.73
2019-05-03T04:24:12.681Z,19.00
2019-05-03T04:26:45.371Z,16.77
2019-05-03T04:29:16.276Z,18.47
2019-05-03T04:31:46.955Z,20.50
2019-05-03T04:34:17.673Z,22.53
2019-05-03T04:36:48.520Z,22.80
2019-05-03T04:39:25.641Z,19.30
2019-05-03T04:41:56.786Z,17.23
2019-05-03T04:44:27.395Z,18.93
2019-05-03T04:46:58.494Z,19.97
2019-05-03T04:49:29.288Z,20.03
2019-05-03T04:51:59.994Z,21.00
2019-05-03T04:54:35.579Z,17.70
2019-05-03T04:57:07.183Z,19.90
2019-05-03T04:59:37.750Z,18.70
2019-05-03T05:02:08.341Z,25.37
2019-05-03T05:04:39.613Z,20.87
2019-05-03T05:07:10.249Z,20.57
2019-05-03T05:09:40.954Z,21.13
2019-05-03T05:12:11.541Z,18.67
2019-05-03T05:14:42.139Z,17.40
2019-05-03T05:17:16.274Z,19.97
2019-05-03T05:20:05.306Z,24.33
2019-05-03T05:22:36.059Z,17.30
2019-05-03T05:25:09.915Z,17.90
2019-05-03T05:28:04.729Z,25.30
2019-05-03T05:30:35.687Z,23.00
2019-05-03T05:33:07.986Z,24.17
2019-05-03T05:35:38.758Z,20.00
2019-05-03T05:38:09.446Z,18.20
2019-05-03T05:40:39.966Z,21.97
2019-05-03T05:43:10.654Z,22.13
2019-05-03T05:45:41.389Z,26.73
2019-05-03T05:48:19.422Z,21.27
2019-05-03T05:50:50.023Z,21.40
2019-05-03T05:53:20.625Z,21.17
2019-05-03T05:55:54.825Z,18.53
2019-05-03T05:58:34.635Z,17.83
2019-05-03T06:01:07.473Z,26.63
2019-05-03T06:03:37.992Z,23.77
2019-05-03T06:06:10.257Z,20.33
2019-05-03T06:08:44.539Z,20.57
2019-05-03T06:11:34.706Z,18.70
2019-05-03T06:14:16.408Z,19.13
2019-05-03T06:17:00.413Z,22.23
2019-05-03T06:19:34.533Z,18.30
2019-05-03T06:22:18.938Z,26.30
2019-05-03T06:24:51.235Z,18.30
2019-05-03T06:27:24.439Z,19.27
2019-05-03T06:29:56.735Z,18.43
2019-05-03T06:32:28.997Z,21.40
2019-05-03T06:34:59.620Z,15.00
2019-05-03T06:37:32.064Z,18.40
2019-05-03T06:40:05.824Z,17.37
2019-05-03T06:42:51.242Z,15.43
2019-05-03T06:45:11.796Z,18.63
2019-05-03T06:47:48.073Z,18.17
2019-05-03T06:50:19.599Z,17.47
2019-05-03T06:52:47.801Z,19.90
2019-05-03T06:55:18.387Z,23.10
2019-05-03T06:57:49.886Z,16.27
2019-05-03T07:00:24.778Z,17.00
2019-05-03T07:02:59.786Z,16.03
2019-05-03T07:05:32.098Z,18.03
2019-05-03T07:08:05.137Z,20.20
2019-05-03T07:10:40.531Z,22.93
2019-05-03T07:13:11.212Z,17.90
2019-05-03T07:15:41.823Z,18.03
2019-05-03T07:18:12.344Z,18.37
2019-05-03T07:20:50.717Z,17.53
2019-05-03T07:23:21.384Z,17.37
2019-05-03T07:25:52.050Z,13.40
2019-05-03T07:28:24.712Z,15.33
2019-05-03T07:30:55.147Z,14.97
2019-05-03T07:33:34.680Z,16.87
2019-05-03T07:36:06.112Z,15.93
2019-05-03T07:38:36.725Z,12.30
2019-05-03T07:41:07.463Z,16.17
2019-05-03T07:43:38.199Z,14.53
2019-05-03T07:46:09.010Z,14.90
2019-05-03T07:48:39.663Z,20.37
2019-05-03T07:51:10.246Z,15.40
2019-05-03T07:53:41.018Z,16.57
2019-05-03T07:56:14.965Z,17.47
2019-05-03T07:58:59.427Z,13.77
2019-05-03T08:01:25.165Z,17.03
2019-05-03T08:03:55.938Z,26.63
2019-05-03T08:06:28.121Z,15.70
2019-05-03T08:08:58.946Z,14.50
2019-05-03T08:11:29.736Z,14.40
2019-05-03T08:14:00.779Z,18.10
2019-05-03T08:16:31.373Z,14.37
2019-05-03T08:19:02.010Z,15.13
2019-05-03T08:21:37.799Z,18.63
2019-05-03T08:24:06.434Z,14.27
2019-05-03T08:26:39.001Z,10.90
2019-05-03T08:29:16.133Z,14.00
2019-05-03T08:31:45.420Z,13.80
2019-05-03T08:34:25.778Z,11.87
2019-05-03T08:37:06.830Z,13.27
2019-05-03T08:39:38.539Z,13.83
2019-05-03T08:42:15.003Z,10.33
2019-05-03T08:44:45.717Z,19.10
2019-05-03T08:47:16.398Z,22.20
2019-05-03T08:49:46.942Z,11.17
2019-05-03T08:52:17.710Z,13.23
2019-05-03T08:54:48.337Z,14.30
2019-05-03T08:57:18.933Z,19.17
2019-05-03T08:59:49.608Z,17.83
2019-05-03T09:02:20.425Z,11.73
2019-05-03T09:04:51.051Z,12.87
2019-05-03T09:07:21.856Z,15.27
2019-05-03T09:09:55.025Z,19.57
2019-05-03T09:12:25.723Z,14.83
2019-05-03T09:14:56.483Z,14.47
2019-05-03T09:17:27.143Z,13.23
2019-05-03T09:19:57.725Z,13.47
2019-05-03T09:22:28.422Z,12.67
2019-05-03T09:24:58.972Z,14.87
2019-05-03T09:27:29.571Z,20.10
2019-05-03T09:30:00.472Z,11.20
2019-05-03T09:32:31.134Z,18.77
2019-05-03T09:35:01.721Z,17.43
2019-05-03T09:37:32.502Z,13.23
2019-05-03T09:40:04.488Z,14.97
2019-05-03T09:42:35.312Z,14.77
2019-05-03T09:45:07.431Z,12.70
2019-05-03T09:47:38.029Z,13.67
2019-05-03T09:50:10.140Z,16.30
2019-05-03T09:52:40.830Z,17.00
2019-05-03T09:55:31.492Z,11.13
2019-05-03T09:58:02.075Z,13.87
2019-05-03T10:00:32.821Z,18.23
2019-05-03T10:03:05.586Z,15.10
2019-05-03T10:05:36.146Z,14.20
2019-05-03T10:08:06.737Z,16.57
2019-05-03T10:10:55.173Z,19.47
2019-05-03T10:13:27.138Z,12.10
2019-05-03T10:15:58.564Z,13.67
2019-05-03T10:18:29.183Z,16.77
2019-05-03T10:20:59.850Z,17.73
2019-05-03T10:23:35.741Z,11.90
2019-05-03T10:26:07.221Z,13.13
2019-05-03T10:28:37.869Z,12.53
2019-05-03T10:31:08.516Z,14.83
2019-05-03T10:33:40.685Z,15.50
2019-05-03T10:36:11.305Z,17.10
2019-05-03T10:38:41.855Z,12.40
2019-05-03T10:41:12.674Z,14.63
2019-05-03T10:43:45.187Z,14.00
2019-05-03T10:46:15.906Z,10.47
2019-05-03T10:48:46.901Z,16.37
2019-05-03T10:51:17.636Z,16.40
2019-05-03T10:53:50.013Z,15.00
2019-05-03T10:56:24.566Z,22.57
2019-05-03T10:59:01.835Z,11.37
2019-05-03T11:01:50.462Z,16.97
2019-05-03T11:04:21.148Z,14.00
2019-05-03T11:06:51.906Z,15.63
2019-05-03T11:09:22.517Z,14.93
2019-05-03T11:11:55.318Z,12.43
2019-05-03T11:14:25.630Z,8.60
2019-05-03T11:16:56.306Z,10.60
2019-05-03T11:19:26.939Z,11.73
2019-05-03T11:21:57.533Z,12.10
2019-05-03T11:24:28.165Z,13.17
2019-05-03T11:27:00.430Z,17.40
2019-05-03T11:29:31.040Z,10.67
2019-05-03T11:32:12.208Z,17.50
2019-05-03T11:34:44.950Z,11.33
2019-05-03T11:37:34.626Z,9.37
2019-05-03T11:40:06.757Z,11.43
2019-05-03T11:42:37.402Z,10.60
2019-05-03T11:45:08.233Z,11.07
2019-05-03T11:47:38.948Z,9.97
2019-05-03T11:50:10.848Z,11.87
2019-05-03T11:52:41.443Z,16.10
2019-05-03T11:55:15.939Z,8.57
2019-05-03T11:57:51.080Z,11.33
2019-05-03T12:00:25.333Z,10.40
2019-05-03T12:03:00.658Z,13.17
2019-05-03T12:05:31.964Z,10.73
2019-05-03T12:08:02.553Z,11.53
2019-05-03T12:10:49.557Z,11.60
2019-05-03T12:13:25.595Z,16.83
2019-05-03T12:15:56.679Z,13.17
2019-05-03T12:18:27.953Z,10.57
2019-05-03T12:21:00.272Z,10.87
2019-05-03T12:23:32.357Z,10.73
2019-05-03T12:26:09.452Z,13.63
2019-05-03T12:28:35.739Z,12.57
2019-05-03T12:31:06.463Z,13.20
2019-05-03T12:33:37.086Z,15.53
2019-05-03T12:36:08.103Z,14.57
2019-05-03T12:38:39.818Z,13.87
2019-05-03T12:41:10.499Z,14.57
2019-05-03T12:43:41.237Z,18.57
2019-05-03T12:46:11.892Z,19.20
2019-05-03T12:48:44.485Z,26.03
2019-05-03T12:51:15.413Z,12.20
2019-05-03T12:53:46.639Z,11.07
2019-05-03T12:56:23.199Z,16.07
2019-05-03T12:58:51.346Z,14.50
2019-05-03T13:01:26.414Z,17.33
2019-05-03T13:03:57.504Z,13.90
2019-05-03T13:06:29.772Z,10.40
2019-05-03T13:09:00.387Z,16.63
2019-05-03T13:11:34.715Z,13.70
2019-05-03T13:14:06.246Z,12.13
2019-05-03T13:16:36.985Z,13.30
2019-05-03T13:19:07.510Z,9.93
2019-05-03T13:21:38.201Z,11.27
2019-05-03T13:24:21.875Z,10.20
2019-05-03T13:26:41.261Z,12.67
2019-05-03T13:29:11.874Z,13.43
2019-05-03T13:31:57.481Z,11.03
2019-05-03T13:34:15.913Z,25.47
2019-05-03T13:36:48.484Z,19.00
2019-05-03T13:39:27.349Z,20.87
2019-05-03T13:42:09.967Z,21.47
2019-05-03T13:44:40.814Z,16.30
2019-05-03T13:47:40.982Z,16.67
2019-05-03T13:50:21.368Z,26.10
2019-05-03T13:52:56.124Z,22.60
2019-05-03T13:55:26.928Z,17.57
2019-05-03T13:57:57.949Z,14.67
2019-05-03T14:00:28.675Z,16.07
2019-05-03T14:02:59.291Z,10.17
2019-05-03T14:05:32.033Z,13.10
2019-05-03T14:08:04.839Z,13.90
2019-05-03T14:10:35.894Z,18.37
2019-05-03T14:13:07.394Z,14.33
2019-05-03T14:15:38.232Z,21.90
2019-05-03T14:18:08.992Z,12.30
2019-05-03T14:20:41.185Z,13.87
2019-05-03T14:23:11.901Z,9.90
2019-05-03T14:25:44.539Z,6.57
2019-05-03T14:28:14.914Z,13.27
2019-05-03T14:30:47.180Z,8.77
2019-05-03T14:33:17.914Z,12.70
2019-05-03T14:35:48.534Z,5.60
2019-05-03T14:38:19.280Z,5.27
2019-05-03T14:40:54.894Z,8.37
2019-05-03T14:43:25.058Z,7.53
2019-05-03T14:45:55.776Z,6.70
2019-05-03T14:48:28.994Z,8.67
2019-05-03T14:51:02.144Z,6.40
2019-05-03T14:53:34.841Z,8.67
2019-05-03T14:56:07.835Z,10.77
2019-05-03T14:58:56.682Z,10.50
2019-05-03T15:01:28.855Z,9.10
2019-05-03T15:03:59.496Z,5.57
2019-05-03T15:06:41.066Z,17.03
2019-05-03T15:09:11.708Z,9.17
2019-05-03T15:11:42.379Z,14.27
2019-05-03T15:14:14.550Z,8.37
2019-05-03T15:16:47.205Z,15.70
2019-05-03T15:19:18.027Z,8.70
2019-05-03T15:21:48.873Z,7.30
2019-05-03T15:24:19.579Z,13.23
2019-05-03T15:26:50.312Z,10.90
2019-05-03T15:29:20.944Z,12.17
2019-05-03T15:31:51.577Z,9.30
2019-05-03T15:34:25.794Z,13.03
2019-05-03T15:36:56.625Z,15.40
2019-05-03T15:39:27.187Z,9.37
2019-05-03T15:41:57.895Z,12.70
2019-05-03T15:44:46.537Z,8.77
2019-05-03T15:47:34.282Z,14.03
2019-05-03T15:50:06.170Z,22.23
2019-05-03T15:52:36.932Z,16.10
2019-05-03T15:55:08.722Z,17.23
2019-05-03T15:57:39.453Z,14.23
2019-05-03T16:00:11.836Z,20.40
2019-05-03T16:02:42.349Z,20.73
2019-05-03T16:05:15.457Z,21.47
2019-05-03T16:07:45.980Z,20.20
2019-05-03T16:10:16.572Z,18.47
2019-05-03T16:12:47.264Z,15.53
2019-05-03T16:15:17.913Z,12.23
2019-05-03T16:17:48.809Z,12.50
2019-05-03T16:20:19.556Z,17.57
2019-05-03T16:22:50.245Z,12.10
2019-05-03T16:25:25.224Z,14.57
2019-05-03T16:28:12.921Z,13.27
2019-05-03T16:30:48.067Z,12.47
2019-05-03T16:33:26.881Z,10.00
2019-05-03T16:35:51.454Z,12.77
2019-05-03T16:38:24.655Z,23.03
2019-05-03T16:40:54.931Z,15.00
2019-05-03T16:43:25.784Z,15.77
2019-05-03T16:45:56.602Z,13.43
2019-05-03T16:48:27.227Z,14.17
2019-05-03T16:50:57.856Z,19.23
2019-05-03T16:53:28.456Z,20.93
2019-05-03T16:55:59.146Z,10.07
2019-05-03T16:58:29.806Z,12.30
2019-05-03T17:01:00.506Z,23.90
2019-05-03T17:03:39.265Z,18.17
2019-05-03T17:06:22.666Z,12.37
2019-05-03T17:09:10.024Z,14.33
2019-05-03T17:11:40.834Z,13.07
2019-05-03T17:14:11.547Z,19.40
2019-05-03T17:16:42.210Z,14.93
2019-05-03T17:19:14.731Z,13.93
2019-05-03T17:21:45.372Z,14.23
2019-05-03T17:24:15.993Z,11.57
2019-05-03T17:26:46.591Z,12.60
2019-05-03T17:29:17.243Z,15.90
2019-05-03T17:31:47.896Z,14.13
2019-05-03T17:34:18.608Z,12.13
2019-05-03T17:36:49.242Z,12.77
2019-05-03T17:39:21.391Z,14.87
2019-05-03T17:42:00.314Z,12.27
2019-05-03T17:44:37.069Z,11.43
2019-05-03T17:47:08.783Z,15.20
2019-05-03T17:49:39.546Z,14.77
2019-05-03T17:52:11.813Z,10.37
2019-05-03T17:54:44.835Z,15.17
2019-05-03T17:57:26.529Z,12.50
2019-05-03T18:00:01.359Z,14.40
2019-05-03T18:02:39.486Z,20.77
2019-05-03T18:05:28.513Z,13.37
2019-05-03T18:08:00.662Z,13.47
2019-05-03T18:10:33.017Z,15.77
2019-05-03T18:13:03.827Z,13.40
2019-05-03T18:15:35.361Z,13.87
2019-05-03T18:18:06.139Z,21.67
2019-05-03T18:20:36.859Z,14.47
2019-05-03T18:23:07.602Z,17.23
2019-05-03T18:25:39.874Z,13.07
2019-05-03T18:28:10.444Z,11.57
2019-05-03T18:30:41.170Z,12.50
2019-05-03T18:33:11.875Z,10.83
2019-05-03T18:35:42.454Z,17.83
2019-05-03T18:38:14.812Z,16.53
2019-05-03T18:40:45.974Z,15.07
2019-05-03T18:43:27.485Z,15.23
2019-05-03T18:45:59.650Z,14.33
2019-05-03T18:48:30.370Z,14.00
2019-05-03T18:51:01.020Z,16.10
2019-05-03T18:53:31.748Z,20.13
2019-05-03T18:56:04.519Z,13.87
2019-05-03T18:58:34.853Z,12.17
2019-05-03T19:01:05.664Z,15.27
2019-05-03T19:03:36.322Z,16.17
2019-05-03T19:06:08.609Z,15.60
2019-05-03T19:08:44.768Z,19.27
2019-05-03T19:11:29.528Z,14.17
2019-05-03T19:14:01.812Z,11.70
2019-05-03T19:16:35.139Z,16.83
2019-05-03T19:19:06.606Z,14.27
2019-05-03T19:21:37.246Z,14.03
2019-05-03T19:24:08.151Z,15.80
2019-05-03T19:26:38.683Z,11.30
2019-05-03T19:29:09.325Z,15.77
2019-05-03T19:31:39.898Z,13.30
2019-05-03T19:34:10.487Z,13.60
2019-05-03T19:36:41.202Z,9.87
2019-05-03T19:39:11.833Z,13.30
2019-05-03T19:41:45.367Z,12.27
2019-05-03T19:44:17.534Z,12.60
2019-05-03T19:46:48.416Z,13.47
2019-05-03T19:49:19.536Z,13.27
2019-05-03T19:51:50.292Z,14.17
2019-05-03T19:54:20.922Z,15.33
2019-05-03T19:56:51.627Z,12.40
2019-05-03T19:59:40.423Z,16.57
2019-05-03T20:02:12.590Z,14.27
2019-05-03T20:05:01.245Z,14.10
2019-05-03T20:07:49.877Z,11.23
2019-05-03T20:10:21.018Z,13.07
2019-05-03T20:12:51.874Z,11.17
2019-05-03T20:15:22.575Z,14.13
2019-05-03T20:17:59.152Z,13.87
2019-05-03T20:20:25.513Z,16.43
2019-05-03T20:22:58.938Z,14.37
2019-05-03T20:25:28.926Z,10.17
2019-05-03T20:27:59.620Z,14.33
2019-05-03T20:30:31.452Z,13.40
2019-05-03T20:33:04.080Z,9.03
2019-05-03T20:35:35.650Z,12.90
2019-05-03T20:38:06.474Z,9.80
2019-05-03T20:40:37.162Z,10.83
2019-05-03T20:43:09.331Z,12.37
2019-05-03T20:45:44.604Z,12.07
2019-05-03T20:48:16.999Z,12.70
2019-05-03T20:50:49.085Z,11.23
2019-05-03T20:53:19.760Z,13.27
2019-05-03T20:55:50.471Z,9.87
2019-05-03T20:58:21.120Z,12.57
2019-05-03T21:00:52.079Z,13.47
2019-05-03T21:03:24.835Z,12.70
2019-05-03T21:05:55.362Z,10.73
2019-05-03T21:08:26.301Z,17.80
2019-05-03T21:10:56.933Z,11.77
2019-05-03T21:13:39.148Z,12.07
2019-05-03T21:16:16.780Z,12.53
2019-05-03T21:18:49.018Z,15.80
2019-05-03T21:21:39.411Z,13.60
2019-05-03T21:24:17.695Z,12.33
2019-05-03T21:26:48.401Z,10.50
2019-05-03T21:29:20.041Z,15.03
2019-05-03T21:31:50.711Z,12.03
2019-05-03T21:34:21.293Z,11.23
2019-05-03T21:36:52.073Z,9.90
2019-05-03T21:39:24.556Z,13.77
2019-05-03T21:41:56.835Z,14.77
2019-05-03T21:44:29.220Z,10.67
2019-05-03T21:47:01.378Z,12.10
2019-05-03T21:49:43.263Z,16.53
2019-05-03T21:52:14.725Z,14.23
2019-05-03T21:54:45.553Z,15.90
2019-05-03T21:57:16.653Z,11.07
2019-05-03T21:59:47.316Z,12.97
2019-05-03T22:02:18.047Z,14.47
2019-05-03T22:04:48.705Z,11.30
2019-05-03T22:07:19.441Z,15.57
2019-05-03T22:09:50.040Z,12.10
2019-05-03T22:12:20.666Z,15.87
2019-05-03T22:14:54.515Z,17.83
2019-05-03T22:17:44.758Z,14.23
2019-05-03T22:20:17.275Z,16.30
2019-05-03T22:22:49.566Z,14.73
2019-05-03T22:25:21.832Z,14.80
2019-05-03T22:27:54.604Z,16.23
2019-05-03T22:30:26.854Z,12.30
2019-05-03T22:32:57.283Z,12.17
2019-05-03T22:35:27.997Z,13.73
2019-05-03T22:37:58.516Z,19.23
2019-05-03T22:40:29.113Z,17.60
2019-05-03T22:42:59.821Z,21.10
2019-05-03T22:45:30.438Z,16.93
2019-05-03T22:48:01.013Z,18.30
2019-05-03T22:50:31.695Z,13.83
2019-05-03T22:53:02.302Z,16.00
2019-05-03T22:55:33.087Z,17.87
2019-05-03T22:58:05.100Z,17.37
2019-05-03T23:00:35.953Z,14.27
2019-05-03T23:03:06.728Z,14.33
2019-05-03T23:05:37.593Z,14.77
2019-05-03T23:08:08.187Z,18.33
2019-05-03T23:10:38.895Z,16.33
2019-05-03T23:13:09.512Z,21.50
2019-05-03T23:15:40.264Z,15.80
2019-05-03T23:18:10.817Z,15.53
2019-05-03T23:20:59.159Z,13.60
2019-05-03T23:23:40.816Z,18.27
2019-05-03T23:26:12.393Z,15.73
2019-05-03T23:28:44.593Z,14.10
2019-05-03T23:31:15.452Z,12.93
2019-05-03T23:33:46.063Z,14.23
2019-05-03T23:36:16.741Z,16.17
2019-05-03T23:38:47.393Z,17.73
2019-05-03T23:41:17.966Z,13.43
2019-05-03T23:43:48.641Z,18.00
2019-05-03T23:46:20.828Z,17.10
2019-05-03T23:48:51.541Z,14.87
2019-05-03T23:51:40.372Z,19.23
2019-05-03T23:54:11.060Z,14.90
2019-05-03T23:56:41.687Z,13.17
2019-05-03T23:59:12.297Z,15.67
